Time;durP1;ratioP1;P1;durP2;ratioP2;P2;SDS_P1;SDS_P2;PMS_P1;PMS_P2;Temp;Humidity;BMP_temperature;BMP_pressure;BME280_temperature;BME280_humidity;BME280_pressure;Samples;Min_cycle;Max_cycle;Signal;HPM_P1;HPM_P2
2023/03/12 00:00:20;;;;;;;8.03;7.30;;;-1.30;99.90;;;-0.59;86.80;97587.44;5232419;28;20845;-62
2023/03/12 00:02:53;;;;;;;8.50;7.07;;;-1.40;99.90;;;-0.58;87.30;97592.56;5239511;28;20615;-63
2023/03/12 00:05:28;;;;;;;8.50;6.70;;;-1.30;99.90;;;-0.61;86.84;97584.75;5237832;28;20295;-62
2023/03/12 00:08:01;;;;;;;8.13;6.83;;;-1.40;99.90;;;-0.65;86.96;97587.72;5239653;28;20263;-62
2023/03/12 00:10:35;;;;;;;7.43;6.57;;;-1.40;99.90;;;-0.68;87.09;97579.91;5234882;28;20210;-63
2023/03/12 00:13:09;;;;;;;7.03;6.33;;;-1.40;99.90;;;-0.67;87.79;97581.66;5239297;28;20743;-63
2023/03/12 00:15:42;;;;;;;6.93;6.33;;;-1.40;99.90;;;-0.69;86.84;97584.06;5240538;28;20284;-62
2023/03/12 00:18:15;;;;;;;8.13;6.10;;;-1.40;99.90;;;-0.66;88.04;97580.91;5236119;28;20303;-62
2023/03/12 00:20:55;;;;;;;7.77;6.80;;;-1.40;99.90;;;-0.69;88.36;97588.16;5233928;28;20288;-62
2023/03/12 00:23:29;;;;;;;8.90;6.73;;;-1.40;99.90;;;-0.71;87.06;97584.66;5234038;28;20323;-62
2023/03/12 00:26:05;;;;;;;7.37;6.67;;;-1.40;99.90;;;-0.72;87.39;97585.34;5234083;28;20583;-61
2023/03/12 00:28:39;;;;;;;7.67;6.60;;;-1.50;99.90;;;-0.72;87.35;97581.22;5236017;28;20216;-62
2023/03/12 00:31:19;;;;;;;6.83;6.13;;;-1.50;99.90;;;-0.77;88.21;97581.56;5238714;28;20204;-63
2023/03/12 00:33:53;;;;;;;6.67;6.10;;;-1.50;99.90;;;-0.77;87.04;97586.56;5230017;28;20849;-61
2023/03/12 00:36:31;;;;;;;7.43;6.57;;;-1.60;99.90;;;-0.88;87.99;97585.53;5237116;28;20741;-63
2023/03/12 00:39:05;;;;;;;8.17;6.47;;;-1.60;99.90;;;-0.88;89.44;97585.53;5241911;28;20314;-62
2023/03/12 00:41:38;;;;;;;7.00;6.30;;;-1.60;99.90;;;-0.86;87.95;97585.66;5235077;28;20288;-60
2023/03/12 00:44:11;;;;;;;6.97;6.17;;;-1.60;99.90;;;-0.87;88.22;97588.94;5232513;28;20206;-63
2023/03/12 00:46:44;;;;;;;6.70;6.10;;;-1.60;99.90;;;-0.88;89.28;97589.69;5242866;28;20720;-62
2023/03/12 00:49:17;;;;;;;6.07;5.57;;;-1.60;99.90;;;-0.92;88.00;97588.47;5241036;28;20229;-62
2023/03/12 00:51:52;;;;;;;7.57;6.83;;;-1.70;99.90;;;-0.89;88.61;97595.41;5242382;28;20204;-62
2023/03/12 00:54:26;;;;;;;7.20;6.50;;;-1.60;99.90;;;-0.87;90.23;97593.94;5237307;28;20311;-62
2023/03/12 00:56:59;;;;;;;7.33;6.57;;;-1.60;99.90;;;-0.89;89.86;97595.41;5234463;28;20335;-63
2023/03/12 00:59:32;;;;;;;7.90;6.10;;;-1.70;99.90;;;-0.89;89.98;97588.75;5242162;28;20224;-61
2023/03/12 01:02:06;;;;;;;7.70;6.90;;;-1.60;99.90;;;-0.93;90.26;97582.56;5238846;28;20299;-60
2023/03/12 01:04:39;;;;;;;7.20;6.50;;;-1.70;99.90;;;-1.00;90.72;97576.81;5239851;28;20207;-60
2023/03/12 01:07:13;;;;;;;6.40;5.80;;;-1.70;99.90;;;-0.99;90.10;97576.09;5240307;28;21028;-62
2023/03/12 01:09:46;;;;;;;6.97;6.37;;;-1.70;99.90;;;-0.95;89.80;97584.03;5237756;28;20219;-61
2023/03/12 01:12:19;;;;;;;8.23;6.63;;;-1.70;99.90;;;-1.19;88.67;97581.69;5240187;28;20219;-62
2023/03/12 01:14:52;;;;;;;6.77;6.10;;;-1.80;99.90;;;-1.11;89.89;97590.84;5238591;28;20279;-63
2023/03/12 01:17:26;;;;;;;8.30;7.47;;;-1.80;99.90;;;-1.14;90.39;97583.03;5241968;28;20200;-62
2023/03/12 01:19:59;;;;;;;7.67;6.50;;;-1.80;99.90;;;-1.07;89.11;97582.00;5232957;28;20316;-62
2023/03/12 01:22:34;;;;;;;8.30;6.97;;;-1.80;99.90;;;-1.09;90.08;97568.41;5232325;28;20202;-62
2023/03/12 01:25:08;;;;;;;13.33;9.40;;;-1.80;99.90;;;-1.08;90.90;97567.69;5238406;28;20227;-62
2023/03/12 01:27:41;;;;;;;19.23;12.37;;;-1.80;99.90;;;-1.06;89.39;97582.16;5234281;28;20346;-62
2023/03/12 01:30:15;;;;;;;11.70;8.33;;;-1.80;99.90;;;-1.16;90.07;97580.34;5238508;28;20636;-62
2023/03/12 01:32:48;;;;;;;8.77;7.40;;;-1.90;99.90;;;-1.17;89.94;97581.09;5237300;28;20235;-62
2023/03/12 01:35:21;;;;;;;7.33;6.73;;;-1.90;99.90;;;-1.17;89.68;97583.63;5237148;28;21985;-63
2023/03/12 01:37:56;;;;;;;7.23;6.63;;;-1.90;99.90;;;-1.13;90.27;97587.28;5236677;28;20323;-62
2023/03/12 01:40:29;;;;;;;7.37;6.67;;;-1.90;99.90;;;-1.11;90.95;97589.97;5238728;28;20330;-62
2023/03/12 01:43:28;;;;;;;7.70;6.43;;;-1.90;99.90;;;-1.13;90.81;97589.81;5237944;28;20211;-63
2023/03/12 01:46:26;;;;;;;7.77;7.07;;;-1.90;99.90;;;-1.18;91.36;97593.47;5234666;28;20250;-63
2023/03/12 01:49:06;;;;;;;7.00;6.37;;;-2.00;99.90;;;-1.22;91.30;97582.28;5231126;28;20224;-60
2023/03/12 01:51:44;;;;;;;7.20;6.60;;;-1.90;99.90;;;-1.17;91.13;97592.75;5243124;28;20208;-60
2023/03/12 01:54:23;;;;;;;8.60;7.03;;;-1.90;99.90;;;-1.22;91.12;97587.28;5235009;28;20204;-62
2023/03/12 01:56:57;;;;;;;6.97;6.27;;;-1.90;99.90;;;-1.21;91.68;97588.16;5240854;28;20203;-62
2023/03/12 01:59:35;;;;;;;6.57;5.97;;;-1.90;99.90;;;-1.13;90.58;97592.31;5242092;28;20234;-62
2023/03/12 02:02:09;;;;;;;7.20;6.40;;;-1.90;99.90;;;-1.14;92.62;97590.56;5240660;28;20300;-59
2023/03/12 02:04:45;;;;;;;6.97;6.40;;;-1.90;99.90;;;-1.14;91.88;97590.56;5239123;28;20200;-63
2023/03/12 02:07:19;;;;;;;6.43;5.83;;;-1.80;99.90;;;-1.07;92.28;97589.50;5237718;28;20564;-63
2023/03/12 02:09:53;;;;;;;6.83;6.07;;;-1.80;99.90;;;-1.02;90.74;97596.75;5236444;28;20199;-63
2023/03/12 02:12:26;;;;;;;6.33;5.67;;;-1.80;99.90;;;-1.01;91.68;97588.47;5235462;28;20228;-63
2023/03/12 02:14:59;;;;;;;6.40;5.77;;;-1.70;99.90;;;-0.94;91.14;97585.84;5239807;28;20200;-62
2023/03/12 02:17:33;;;;;;;6.20;5.70;;;-1.70;99.90;;;-0.87;90.25;97591.44;5234830;28;20201;-63
2023/03/12 02:20:16;;;;;;;8.13;6.70;;;-1.70;99.90;;;-0.85;90.92;97584.94;5238234;28;20315;-63
2023/03/12 02:22:56;;;;;;;7.07;6.50;;;-1.70;99.90;;;-0.89;90.48;97585.38;5244473;28;20204;-63
2023/03/12 02:25:37;;;;;;;7.07;5.87;;;-1.70;99.90;;;-0.91;91.22;97590.25;5239038;28;20214;-63
2023/03/12 02:28:15;;;;;;;6.90;6.33;;;-1.70;99.90;;;-0.80;90.54;97588.75;5241421;28;20589;-62
2023/03/12 02:30:51;;;;;;;7.37;6.67;;;-1.60;99.90;;;-0.82;90.88;97596.16;5239772;28;20203;-64
2023/03/12 02:33:25;;;;;;;7.00;6.30;;;-1.60;99.90;;;-0.84;90.37;97582.56;5246266;28;20826;-63
2023/03/12 02:35:58;;;;;;;6.63;5.93;;;-1.60;99.90;;;-0.83;90.00;97583.44;5244288;28;20232;-63
2023/03/12 02:38:42;;;;;;;6.87;6.23;;;-1.60;99.90;;;-0.76;91.30;97585.81;5243725;28;20240;-64
2023/03/12 02:41:21;;;;;;;6.73;6.07;;;-1.60;99.90;;;-0.83;90.18;97580.94;5245420;28;20703;-63
2023/03/12 02:44:01;;;;;;;7.10;6.43;;;-1.60;99.90;;;-0.75;91.21;97575.91;5238749;28;20228;-63
2023/03/12 02:46:40;;;;;;;6.97;6.27;;;-1.60;99.90;;;-0.66;90.55;97582.56;5245577;28;20238;-61
2023/03/12 02:49:14;;;;;;;6.70;6.10;;;-1.50;99.90;;;-0.73;91.33;97584.47;5243928;28;21110;-63
2023/03/12 02:51:48;;;;;;;7.17;6.60;;;-1.50;99.90;;;-0.85;90.69;97587.47;5237984;28;20682;-62
2023/03/12 02:54:23;;;;;;;7.33;6.20;;;-1.60;99.90;;;-0.82;91.77;97592.75;5244757;28;20232;-63
2023/03/12 02:56:58;;;;;;;8.30;6.13;;;-1.50;99.90;;;-0.73;92.36;97597.03;5239949;28;20287;-61
2023/03/12 02:59:31;;;;;;;7.00;6.27;;;-1.40;99.90;;;-0.68;90.82;97584.94;5243073;28;20307;-63
2023/03/12 03:02:05;;;;;;;6.80;6.23;;;-1.50;99.90;;;-0.56;89.23;97586.09;5245373;28;20338;-63
2023/03/12 03:04:39;;;;;;;6.87;6.27;;;-1.40;99.90;;;-0.65;89.76;97595.25;5242121;28;20200;-62
2023/03/12 03:07:13;;;;;;;7.10;6.50;;;-1.40;99.90;;;-0.68;91.06;97589.94;5242658;28;20287;-63
2023/03/12 03:09:46;;;;;;;7.07;5.83;;;-1.40;99.90;;;-0.70;91.11;97581.38;5245325;28;20231;-63
2023/03/12 03:12:21;;;;;;;6.80;6.30;;;-1.50;99.90;;;-0.71;91.33;97590.53;5239663;28;20203;-64
2023/03/12 03:14:54;;;;;;;7.47;6.60;;;-1.40;99.90;;;-0.78;90.33;97577.25;5243114;28;20307;-64
2023/03/12 03:17:29;;;;;;;6.60;6.10;;;-1.40;99.90;;;-0.74;91.00;97579.34;5240869;28;21220;-63
2023/03/12 03:20:07;;;;;;;7.07;6.47;;;-1.40;99.90;;;-0.68;91.31;97574.91;5242900;28;20230;-63
2023/03/12 03:22:40;;;;;;;7.77;6.70;;;-1.40;99.90;;;-0.74;91.12;97572.69;5244746;28;20197;-63
2023/03/12 03:25:13;;;;;;;7.87;6.40;;;-1.40;99.90;;;-0.76;89.52;97570.78;5241051;28;20197;-61
2023/03/12 03:27:47;;;;;;;7.03;6.33;;;-1.40;99.90;;;-0.67;90.09;97569.13;5242100;28;20224;-63
2023/03/12 03:30:21;;;;;;;7.63;6.77;;;-1.30;99.90;;;-0.62;89.31;97575.47;5233074;28;20572;-63
2023/03/12 03:32:54;;;;;;;8.50;7.43;;;-1.30;99.90;;;-0.53;89.65;97568.81;5235514;28;20287;-64
2023/03/12 03:35:27;;;;;;;9.07;7.90;;;-1.20;99.90;;;-0.47;90.95;97566.00;5242137;28;20324;-64
2023/03/12 03:38:00;;;;;;;9.30;8.30;;;-1.10;99.90;;;-0.42;91.53;97556.38;5245115;28;20277;-64
2023/03/12 03:40:33;;;;;;;10.40;8.50;;;-1.10;99.90;;;-0.39;90.31;97550.03;5244965;28;20228;-63
2023/03/12 03:43:07;;;;;;;9.07;8.27;;;-1.00;99.90;;;-0.40;90.69;97548.25;5232646;28;20631;-64
2023/03/12 03:45:43;;;;;;;10.73;7.80;;;-1.00;99.90;;;-0.33;91.07;97549.72;5237228;28;20296;-63
2023/03/12 03:48:16;;;;;;;8.50;7.70;;;-1.00;99.90;;;-0.28;89.90;97554.41;5243884;28;20663;-63
2023/03/12 03:50:49;;;;;;;9.43;8.03;;;-1.00;99.90;;;-0.27;90.60;97547.75;5243570;28;20294;-62
2023/03/12 03:53:22;;;;;;;8.63;7.83;;;-0.90;99.90;;;-0.29;89.33;97552.63;5245210;28;20290;-63
2023/03/12 03:55:56;;;;;;;9.87;7.10;;;-1.00;99.90;;;-0.25;90.15;97554.72;5239705;28;20328;-63
2023/03/12 03:58:30;;;;;;;8.83;8.00;;;-0.90;99.90;;;-0.31;88.82;97553.25;5235587;28;20320;-64
2023/03/12 04:01:04;;;;;;;8.70;7.87;;;-1.00;99.90;;;-0.31;89.27;97550.75;5241194;28;20218;-63
2023/03/12 04:03:37;;;;;;;9.37;8.43;;;-1.00;99.90;;;-0.38;89.34;97548.38;5242953;28;20311;-63
2023/03/12 04:06:12;;;;;;;8.10;7.30;;;-1.00;99.90;;;-0.33;88.74;97549.72;5236970;28;20201;-63
2023/03/12 04:08:45;;;;;;;10.83;8.43;;;-1.00;99.90;;;-0.28;89.82;97561.06;5239356;28;20210;-63
2023/03/12 04:11:21;;;;;;;9.13;8.03;;;-1.00;99.90;;;-0.28;89.42;97554.41;5242420;28;20208;-63
2023/03/12 04:13:55;;;;;;;8.73;7.83;;;-1.00;99.90;;;-0.29;90.47;97565.19;5235447;28;20297;-64
2023/03/12 04:16:29;;;;;;;7.80;7.20;;;-1.00;99.90;;;-0.36;88.65;97559.47;5235347;28;20296;-63
2023/03/12 04:19:02;;;;;;;8.03;7.23;;;-1.00;99.90;;;-0.34;89.93;97558.00;5229308;28;20594;-62
2023/03/12 04:21:38;;;;;;;7.70;6.93;;;-1.00;99.90;;;-0.29;89.56;97555.13;5228189;28;20344;-63
2023/03/12 04:24:16;;;;;;;7.57;6.87;;;-1.00;99.90;;;-0.29;88.68;97561.78;5240693;28;20229;-64
2023/03/12 04:26:50;;;;;;;9.77;7.40;;;-0.90;99.90;;;-0.57;88.45;97561.75;5240496;28;20198;-64
2023/03/12 04:29:25;;;;;;;7.63;6.90;;;-1.10;99.90;;;-0.53;88.55;97553.75;5240104;28;20474;-63
2023/03/12 04:31:58;;;;;;;8.27;7.47;;;-1.10;99.90;;;-0.43;89.93;97552.97;5230685;28;20244;-62
2023/03/12 04:34:31;;;;;;;8.67;7.63;;;-1.10;99.90;;;-0.36;89.88;97552.81;5238538;28;20274;-63
2023/03/12 04:37:04;;;;;;;8.13;7.37;;;-1.00;99.90;;;-0.38;89.67;97540.84;5237860;28;20197;-63
2023/03/12 04:39:37;;;;;;;8.27;7.47;;;-1.00;99.90;;;-0.33;89.05;97538.03;5238425;28;20239;-62
2023/03/12 04:42:11;;;;;;;8.83;8.13;;;-1.00;99.90;;;-0.27;89.86;97540.25;5235693;28;20216;-62
2023/03/12 04:44:45;;;;;;;10.93;9.33;;;-0.90;99.90;;;-0.22;89.11;97543.19;5237135;28;20260;-63
2023/03/12 04:47:18;;;;;;;8.20;7.40;;;-0.90;99.90;;;-0.29;89.38;97541.72;5227559;28;20712;-62
2023/03/12 04:49:51;;;;;;;8.73;7.93;;;-0.90;99.90;;;-0.32;88.68;97538.91;5234722;28;20658;-63
2023/03/12 04:52:25;;;;;;;9.13;8.13;;;-0.90;99.90;;;-0.27;88.17;97540.25;5238469;28;20301;-63
2023/03/12 04:54:59;;;;;;;9.73;8.73;;;-0.90;99.90;;;-0.37;89.01;97547.63;5239014;28;20292;-61
2023/03/12 04:57:32;;;;;;;9.87;8.87;;;-0.90;99.90;;;-0.40;89.37;97547.34;5227663;28;20429;-62
2023/03/12 05:00:12;;;;;;;9.10;8.23;;;-0.90;99.90;;;-0.46;88.37;97548.56;5242542;28;20648;-62
2023/03/12 05:02:45;;;;;;;10.10;8.80;;;-1.00;99.90;;;-0.42;88.64;97546.34;5240191;28;20601;-62
2023/03/12 05:05:18;;;;;;;9.67;8.73;;;-0.90;99.90;;;-0.26;88.20;97552.94;5239408;28;20250;-63
2023/03/12 05:07:51;;;;;;;9.70;8.90;;;-0.90;99.90;;;-0.36;88.25;97555.34;5239376;28;20216;-63
2023/03/12 05:10:24;;;;;;;10.23;9.17;;;-0.80;99.90;;;-0.28;89.53;97553.53;5241333;28;20650;-62
2023/03/12 05:12:57;;;;;;;9.53;8.73;;;-0.80;99.90;;;-0.14;89.03;97557.31;5243394;28;20288;-62
2023/03/12 05:15:32;;;;;;;10.60;9.50;;;-0.70;99.90;;;-0.09;89.22;97551.97;5236643;28;20673;-62
2023/03/12 05:18:05;;;;;;;10.30;9.30;;;-0.70;99.90;;;-0.01;87.86;97545.16;5242972;28;20216;-64
2023/03/12 05:20:38;;;;;;;9.33;8.20;;;-0.70;99.90;;;0.00;88.84;97546.94;5239468;28;20211;-64
2023/03/12 05:23:11;;;;;;;10.23;9.20;;;-0.70;99.90;;;0.04;87.74;97543.06;5238031;28;20712;-63
2023/03/12 05:25:44;;;;;;;10.27;9.27;;;-0.60;99.90;;;0.05;88.92;97547.34;5237855;28;20298;-64
2023/03/12 05:28:19;;;;;;;9.73;8.80;;;-0.60;99.90;;;0.12;88.63;97540.53;5242356;28;20696;-64
2023/03/12 05:30:54;;;;;;;9.60;8.70;;;-0.60;99.90;;;0.20;89.79;97536.16;5235465;28;20694;-63
2023/03/12 05:33:28;;;;;;;10.23;9.23;;;-0.50;99.90;;;0.19;89.41;97536.94;5235570;28;20698;-62
2023/03/12 05:36:01;;;;;;;13.33;9.13;;;-0.50;99.90;;;0.25;89.22;97540.00;5238907;28;20234;-63
2023/03/12 05:38:35;;;;;;;9.67;8.60;;;-0.40;99.90;;;0.29;88.90;97536.16;5241042;28;20229;-62
2023/03/12 05:41:20;;;;;;;9.20;8.30;;;-0.40;99.90;;;0.36;89.13;97539.34;5232784;28;20241;-64
2023/03/12 05:43:55;;;;;;;9.17;8.27;;;-0.30;99.90;;;0.34;87.98;97540.81;5232752;28;20765;-63
2023/03/12 05:46:29;;;;;;;8.90;7.63;;;-0.30;99.90;;;0.35;88.73;97537.59;5234931;28;20297;-62
2023/03/12 05:49:03;;;;;;;8.70;7.80;;;-0.30;99.90;;;0.38;88.94;97527.81;5240747;28;20257;-63
2023/03/12 05:51:36;;;;;;;9.23;8.33;;;-0.30;99.90;;;0.33;86.64;97539.06;5237865;28;20209;-64
2023/03/12 05:54:09;;;;;;;9.47;8.57;;;-0.40;99.90;;;0.35;87.25;97535.06;5234851;28;20290;-63
2023/03/12 05:56:43;;;;;;;9.37;8.47;;;-0.40;99.90;;;0.38;88.16;97534.47;5236082;28;20710;-63
2023/03/12 05:59:16;;;;;;;8.37;7.60;;;-0.30;99.90;;;0.30;87.48;97538.78;5235244;28;20276;-64
2023/03/12 06:01:51;;;;;;;9.60;8.60;;;-0.30;99.90;;;0.39;88.49;97547.16;5236424;28;20231;-63
2023/03/12 06:04:24;;;;;;;8.73;7.97;;;-0.20;99.90;;;0.42;87.95;97549.94;5237478;28;20573;-63
2023/03/12 06:06:57;;;;;;;8.43;7.63;;;-0.20;99.90;;;0.53;89.06;97552.56;5230976;28;20196;-63
2023/03/12 06:09:30;;;;;;;8.03;7.27;;;-0.10;99.90;;;0.61;88.25;97552.50;5235408;28;20226;-62
2023/03/12 06:12:04;;;;;;;8.40;7.60;;;-0.10;99.90;;;0.70;87.78;97557.47;5240605;28;20256;-63
2023/03/12 06:14:37;;;;;;;8.73;7.90;;;0.00;99.90;;;0.92;86.58;97544.25;5235924;28;20205;-63
2023/03/12 06:17:11;;;;;;;8.87;7.80;;;0.10;99.90;;;0.81;86.93;97544.22;5235275;28;20303;-63
2023/03/12 06:19:44;;;;;;;9.77;8.87;;;0.00;99.90;;;0.75;87.26;97547.81;5234652;28;20230;-62
2023/03/12 06:22:17;;;;;;;9.50;8.60;;;0.00;99.90;;;0.65;86.55;97556.16;5238044;28;20690;-63
2023/03/12 06:24:50;;;;;;;9.50;8.60;;;-0.10;99.90;;;0.67;86.79;97555.56;5235195;28;20231;-62
2023/03/12 06:27:24;;;;;;;8.63;7.97;;;0.00;99.90;;;0.67;87.47;97542.09;5233964;28;20250;-63
2023/03/12 06:29:57;;;;;;;10.23;9.03;;;-0.10;99.90;;;0.73;86.92;97539.25;5232431;28;20197;-64
2023/03/12 06:32:31;;;;;;;9.27;8.30;;;0.00;99.90;;;0.86;86.84;97535.44;5233051;28;20208;-62
2023/03/12 06:35:05;;;;;;;9.47;8.50;;;0.00;99.90;;;0.97;86.98;97543.03;5230452;28;20210;-63
2023/03/12 06:37:38;;;;;;;8.83;7.93;;;0.20;99.90;;;0.99;87.06;97546.59;5233414;28;20343;-63
2023/03/12 06:40:13;;;;;;;8.50;7.77;;;0.20;99.90;;;1.01;86.90;97547.63;5231636;28;20605;-63
2023/03/12 06:42:46;;;;;;;8.57;7.77;;;0.20;99.90;;;1.05;87.09;97539.56;5234738;28;20308;-63
2023/03/12 06:45:19;;;;;;;9.13;8.23;;;0.40;99.90;;;1.12;87.02;97546.94;5232038;28;20205;-63
2023/03/12 06:47:53;;;;;;;8.40;7.60;;;0.40;99.90;;;1.17;87.71;97543.16;5228616;28;20224;-63
2023/03/12 06:50:26;;;;;;;9.27;8.47;;;0.40;99.90;;;1.12;88.08;97544.41;5235954;28;20207;-63
2023/03/12 06:52:59;;;;;;;8.60;7.70;;;0.40;99.90;;;1.23;88.79;97537.78;5230462;28;20292;-64
2023/03/12 06:55:32;;;;;;;9.10;8.13;;;0.50;99.90;;;1.21;86.89;97530.13;5215570;28;20201;-64
2023/03/12 06:58:05;;;;;;;8.40;7.60;;;0.40;99.90;;;1.25;88.13;97533.78;5222890;28;20221;-64
2023/03/12 07:00:38;;;;;;;8.80;7.73;;;0.50;99.90;;;1.37;88.75;97541.50;5231541;28;20634;-64
2023/03/12 07:03:13;;;;;;;9.10;8.20;;;0.50;99.90;;;1.40;90.07;97541.78;5231792;28;20307;-65
2023/03/12 07:05:48;;;;;;;8.97;8.20;;;0.60;99.90;;;1.32;87.85;97534.44;5235179;28;20294;-63
2023/03/12 07:08:21;;;;;;;8.53;7.83;;;0.60;99.90;;;1.40;87.74;97540.13;5238884;28;20784;-62
2023/03/12 07:10:55;;;;;;;10.23;9.33;;;0.60;99.90;;;1.48;88.39;97550.88;5234938;28;20489;-64
2023/03/12 07:13:28;;;;;;;9.07;8.27;;;0.70;99.90;;;1.49;87.81;97542.59;5239721;28;20206;-64
2023/03/12 07:16:01;;;;;;;9.07;8.13;;;0.80;99.90;;;1.60;87.76;97541.84;5240198;28;20235;-63
2023/03/12 07:18:35;;;;;;;9.03;8.23;;;0.90;99.90;;;1.68;87.22;97540.88;5241844;28;20218;-64
2023/03/12 07:21:09;;;;;;;9.93;8.93;;;0.90;99.90;;;1.79;87.23;97539.28;5232244;28;20228;-64
2023/03/12 07:23:42;;;;;;;9.63;8.63;;;1.00;99.90;;;1.79;87.54;97537.63;5233062;28;20221;-63
2023/03/12 07:26:15;;;;;;;9.50;8.53;;;1.00;99.90;;;1.88;87.27;97545.09;5240982;28;20289;-64
2023/03/12 07:28:48;;;;;;;9.07;8.20;;;1.10;99.90;;;1.86;87.23;97543.19;5233887;28;20224;-63
2023/03/12 07:31:21;;;;;;;8.40;7.67;;;1.10;99.90;;;1.89;87.61;97540.94;5240706;28;20205;-63
2023/03/12 07:33:56;;;;;;;8.90;8.10;;;1.20;99.90;;;1.77;85.98;97551.75;5241351;28;20563;-63
2023/03/12 07:36:29;;;;;;;9.70;8.17;;;1.10;99.90;;;1.73;87.10;97554.75;5235021;28;20656;-64
2023/03/12 07:39:03;;;;;;;8.50;7.73;;;1.10;99.90;;;1.83;86.67;97551.38;5239823;28;20881;-64
2023/03/12 07:41:37;;;;;;;9.37;8.57;;;1.10;99.90;;;1.89;87.10;97546.88;5231509;28;20230;-64
2023/03/12 07:44:10;;;;;;;9.40;8.53;;;1.20;99.90;;;1.98;88.02;97549.28;5237296;28;20256;-64
2023/03/12 07:46:44;;;;;;;9.33;8.40;;;1.30;99.90;;;1.97;88.49;97557.59;5236232;28;20217;-64
2023/03/12 07:49:19;;;;;;;9.77;9.00;;;1.30;99.90;;;2.00;89.51;97552.81;5235247;28;20571;-63
2023/03/12 07:51:52;;;;;;;9.73;8.83;;;1.30;99.90;;;1.96;89.98;97559.22;5234919;28;20208;-64
2023/03/12 07:54:29;;;;;;;8.47;7.67;;;1.30;99.90;;;1.94;90.54;97554.81;5241387;28;20205;-64
2023/03/12 07:57:02;;;;;;;8.43;7.73;;;1.30;99.90;;;1.78;91.45;97557.69;5238050;28;20198;-64
2023/03/12 07:59:35;;;;;;;8.77;7.97;;;1.10;99.90;;;1.73;92.55;97549.72;5241060;28;20693;-64
2023/03/12 08:02:10;;;;;;;8.00;7.40;;;1.10;99.90;;;1.77;93.70;97555.88;5242483;28;20229;-63
2023/03/12 08:04:44;;;;;;;8.27;7.57;;;1.20;99.90;;;1.78;95.21;97552.63;5241741;28;20232;-64
2023/03/12 08:07:18;;;;;;;9.30;8.43;;;1.20;99.90;;;1.85;95.70;97549.00;5241957;28;20542;-64
2023/03/12 08:09:51;;;;;;;11.03;10.03;;;1.20;99.90;;;1.79;95.40;97539.28;5239044;28;20239;-64
2023/03/12 08:12:24;;;;;;;10.97;9.90;;;1.20;99.90;;;1.79;95.42;97549.34;5237633;28;20266;-63
2023/03/12 08:14:57;;;;;;;10.60;9.50;;;1.10;99.90;;;1.86;96.65;97549.13;5232888;28;20623;-64
2023/03/12 08:17:30;;;;;;;10.60;9.37;;;1.20;99.90;;;1.93;98.45;97548.00;5241379;28;20650;-62
2023/03/12 08:20:08;;;;;;;11.27;9.90;;;1.20;99.90;;;1.93;98.96;97543.84;5236650;28;20605;-63
2023/03/12 08:22:41;;;;;;;11.67;9.87;;;1.30;99.90;;;1.98;98.65;97541.72;5239790;28;20222;-64
2023/03/12 08:25:14;;;;;;;10.60;9.73;;;1.30;99.90;;;2.00;99.30;97540.19;5237039;28;20329;-63
2023/03/12 08:27:48;;;;;;;10.20;9.30;;;1.30;99.90;;;2.01;99.57;97545.38;5239353;28;20283;-63
2023/03/12 08:30:21;;;;;;;12.03;10.83;;;1.40;99.90;;;2.09;100.00;97541.00;5241276;28;20641;-63
2023/03/12 08:32:54;;;;;;;12.93;11.40;;;1.50;99.90;;;2.20;100.00;97545.31;5242743;28;20717;-63
2023/03/12 08:35:29;;;;;;;13.63;11.50;;;1.60;99.90;;;2.22;100.00;97538.72;5238095;28;20207;-63
2023/03/12 08:38:02;;;;;;;14.83;12.30;;;1.60;99.90;;;2.36;100.00;97539.00;5236330;28;20306;-64
2023/03/12 08:40:35;;;;;;;16.13;12.87;;;1.70;99.90;;;2.44;100.00;97541.41;5239637;28;20211;-63
2023/03/12 08:43:08;;;;;;;15.33;13.83;;;1.80;99.90;;;2.51;100.00;97549.47;5238346;28;20213;-64
2023/03/12 08:45:41;;;;;;;17.07;13.77;;;1.90;99.90;;;2.66;100.00;97549.13;5233156;28;20229;-64
2023/03/12 08:48:14;;;;;;;18.03;13.70;;;2.00;99.90;;;2.71;100.00;97542.78;5240803;28;20227;-64
2023/03/12 08:50:48;;;;;;;12.07;10.87;;;2.00;99.90;;;2.90;100.00;97549.34;5236085;28;20292;-62
2023/03/12 08:53:22;;;;;;;11.87;10.87;;;2.10;99.90;;;2.91;100.00;97553.63;5229305;28;20204;-63
2023/03/12 08:55:55;;;;;;;11.30;10.30;;;2.10;99.90;;;2.93;100.00;97554.63;5246658;28;20207;-64
2023/03/12 08:58:29;;;;;;;10.87;9.77;;;2.20;99.90;;;2.97;100.00;97541.50;5234572;28;20313;-64
2023/03/12 09:01:08;;;;;;;10.83;9.10;;;2.20;99.90;;;3.11;100.00;97535.91;5241913;28;20312;-64
2023/03/12 09:03:41;;;;;;;10.17;9.27;;;2.30;99.90;;;3.20;100.00;97539.94;5244104;28;20230;-63
2023/03/12 09:06:15;;;;;;;11.50;10.37;;;2.40;99.90;;;3.27;100.00;97542.19;5236995;28;20238;-62
2023/03/12 09:08:50;;;;;;;10.93;9.83;;;2.50;99.90;;;3.21;100.00;97545.13;5232778;28;20561;-64
2023/03/12 09:11:23;;;;;;;10.50;9.40;;;2.50;99.90;;;3.34;100.00;97542.78;5243259;28;20204;-64
2023/03/12 09:13:56;;;;;;;11.43;10.43;;;2.50;99.90;;;3.35;100.00;97536.13;5244394;28;20211;-64
2023/03/12 09:16:50;;;;;;;12.40;11.37;;;2.60;99.90;;;3.31;100.00;97539.16;5236734;28;20209;-64
2023/03/12 09:19:23;;;;;;;11.90;10.80;;;2.60;99.90;;;3.37;100.00;97539.63;5232188;28;20223;-65
2023/03/12 09:21:57;;;;;;;12.43;11.23;;;2.60;99.90;;;3.46;100.00;97537.81;5236262;28;20200;-62
2023/03/12 09:24:30;;;;;;;13.77;11.87;;;2.70;99.90;;;3.51;100.00;97540.72;5235203;28;20227;-64
2023/03/12 09:27:04;;;;;;;14.30;13.03;;;2.80;99.90;;;3.53;100.00;97541.72;5231130;28;20630;-64
2023/03/12 09:29:37;;;;;;;14.07;12.53;;;2.80;99.90;;;3.60;100.00;97538.91;5232870;28;20228;-64
2023/03/12 09:32:29;;;;;;;13.00;11.80;;;2.80;99.90;;;3.75;100.00;97534.16;5235153;28;20646;-64
2023/03/12 09:35:04;;;;;;;13.43;12.13;;;3.00;99.90;;;3.74;100.00;97545.03;5235724;28;20198;-64
2023/03/12 09:37:38;;;;;;;12.13;10.93;;;3.00;99.90;;;3.91;100.00;97536.25;5233018;28;20256;-64
2023/03/12 09:40:19;;;;;;;12.37;11.17;;;3.10;99.90;;;3.88;100.00;97546.13;5234265;28;20200;-62
2023/03/12 09:42:56;;;;;;;12.73;11.47;;;3.10;99.90;;;3.91;100.00;97532.06;5237156;28;20597;-64
2023/03/12 09:45:35;;;;;;;12.83;11.53;;;3.20;99.90;;;3.82;100.00;97536.41;5229841;28;20201;-64
2023/03/12 09:48:16;;;;;;;12.87;11.60;;;3.10;99.90;;;4.22;100.00;97545.41;5231291;28;22471;-64
2023/03/12 09:50:51;;;;;;;13.67;11.53;;;3.50;99.90;;;4.12;100.00;97542.06;5236895;28;20279;-65
2023/03/12 09:53:31;;;;;;;12.93;11.80;;;3.30;99.90;;;4.18;100.00;97542.56;5228034;28;20348;-64
2023/03/12 09:56:09;;;;;;;14.40;13.20;;;3.40;99.90;;;4.18;100.00;97545.09;5228542;28;20695;-64
2023/03/12 09:58:43;;;;;;;14.70;13.20;;;3.40;99.90;;;4.12;100.00;97545.50;5232452;28;20330;-64
2023/03/12 10:01:35;;;;;;;13.70;12.50;;;3.50;99.90;;;4.41;100.00;97546.81;5235534;28;20236;-64
2023/03/12 10:04:26;;;;;;;14.23;12.93;;;3.60;99.90;;;4.35;100.00;97554.84;5233296;28;20768;-63
2023/03/12 10:07:08;;;;;;;13.67;12.27;;;3.70;99.90;;;4.53;100.00;97550.25;5236887;28;20563;-65
2023/03/12 10:10:21;;;;;;;14.07;12.77;;;3.90;99.90;;;4.77;100.00;97552.84;5233045;28;20227;-63
2023/03/12 10:13:19;;;;;;;13.87;12.67;;;4.10;99.90;;;4.94;100.00;97537.25;5233411;28;20294;-63
2023/03/12 10:16:09;;;;;;;16.13;14.57;;;4.20;99.90;;;5.11;100.00;97538.50;5236933;28;20203;-64
2023/03/12 10:19:14;;;;;;;16.60;15.10;;;4.30;99.90;;;5.02;100.00;97546.28;5237293;28;20230;-63
2023/03/12 10:21:55;;;;;;;27.90;25.20;;;4.30;99.90;;;4.99;100.00;97545.19;5234370;28;20209;-64
2023/03/12 10:24:45;;;;;;;18.13;16.43;;;4.30;99.90;;;5.07;100.00;97539.03;5229858;28;20263;-64
2023/03/12 10:27:24;;;;;;;18.33;16.70;;;4.30;99.90;;;5.21;100.00;97540.94;5231628;28;20576;-63
2023/03/12 10:29:58;;;;;;;18.37;16.50;;;4.50;99.90;;;5.34;100.00;97535.94;5234326;28;20544;-63
2023/03/12 10:32:39;;;;;;;18.03;16.53;;;4.60;99.90;;;5.42;100.00;97545.00;5234384;28;20303;-63
2023/03/12 10:35:18;;;;;;;17.47;15.87;;;4.70;99.90;;;5.58;100.00;97543.53;5233846;28;20200;-62
2023/03/12 10:37:57;;;;;;;18.37;16.73;;;4.80;99.90;;;5.64;100.00;97554.13;5235935;28;20232;-63
2023/03/12 10:40:33;;;;;;;17.63;15.93;;;4.90;99.90;;;5.83;100.00;97553.75;5237350;28;20307;-63
2023/03/12 10:43:08;;;;;;;17.87;16.13;;;5.10;99.90;;;6.04;100.00;97556.97;5234946;28;20731;-63
2023/03/12 10:45:50;;;;;;;17.20;15.53;;;5.20;99.90;;;6.21;100.00;97548.84;5236732;28;20231;-64
2023/03/12 10:48:25;;;;;;;19.47;17.63;;;5.50;99.90;;;6.34;100.00;97550.56;5235461;28;20231;-63
2023/03/12 10:51:04;;;;;;;17.50;15.80;;;5.60;99.90;;;6.58;100.00;97553.91;5236857;28;20660;-63
2023/03/12 10:53:41;;;;;;;17.77;16.27;;;5.80;99.90;;;6.80;100.00;97558.72;5237567;28;20623;-63